sensor_id;sensor_type;location;lat;lon;timestamp;P1;durP1;ratioP1;P2;durP2;ratioP2
18899;SDS011;9582;52.018;6.306;2023-04-10T00:00:33;22.37;;;17.53;;
18899;SDS011;9582;52.018;6.306;2023-04-10T00:03:01;23.97;;;18.37;;
18899;SDS011;9582;52.018;6.306;2023-04-10T00:05:27;22.53;;;16.83;;
18899;SDS011;9582;52.018;6.306;2023-04-10T00:07:54;21.50;;;16.80;;
18899;SDS011;9582;52.018;6.306;2023-04-10T00:10:21;21.50;;;16.93;;
18899;SDS011;9582;52.018;6.306;2023-04-10T00:12:50;20.83;;;16.47;;
18899;SDS011;9582;52.018;6.306;2023-04-10T00:15:18;18.97;;;15.33;;
18899;SDS011;9582;52.018;6.306;2023-04-10T00:17:46;21.00;;;16.60;;
18899;SDS011;9582;52.018;6.306;2023-04-10T00:20:14;20.23;;;15.63;;
18899;SDS011;9582;52.018;6.306;2023-04-10T00:22:41;21.27;;;16.47;;
18899;SDS011;9582;52.018;6.306;2023-04-10T00:25:07;19.93;;;16.53;;
18899;SDS011;9582;52.018;6.306;2023-04-10T00:27:34;18.70;;;15.77;;
18899;SDS011;9582;52.018;6.306;2023-04-10T00:30:01;20.03;;;16.10;;
18899;SDS011;9582;52.018;6.306;2023-04-10T00:32:27;19.07;;;14.53;;
18899;SDS011;9582;52.018;6.306;2023-04-10T00:34:55;19.40;;;15.70;;
18899;SDS011;9582;52.018;6.306;2023-04-10T00:37:22;20.63;;;16.20;;
18899;SDS011;9582;52.018;6.306;2023-04-10T00:39:48;20.57;;;15.50;;
18899;SDS011;9582;52.018;6.306;2023-04-10T00:42:15;20.17;;;15.53;;
18899;SDS011;9582;52.018;6.306;2023-04-10T00:44:41;18.63;;;14.00;;
18899;SDS011;9582;52.018;6.306;2023-04-10T00:47:08;20.80;;;14.90;;
18899;SDS011;9582;52.018;6.306;2023-04-10T00:49:34;19.87;;;15.60;;
18899;SDS011;9582;52.018;6.306;2023-04-10T00:52:02;18.70;;;14.77;;
18899;SDS011;9582;52.018;6.306;2023-04-10T00:54:29;21.57;;;15.50;;
18899;SDS011;9582;52.018;6.306;2023-04-10T00:56:57;18.20;;;14.73;;
18899;SDS011;9582;52.018;6.306;2023-04-10T00:59:23;19.97;;;15.63;;
18899;SDS011;9582;52.018;6.306;2023-04-10T01:01:50;21.80;;;15.53;;
18899;SDS011;9582;52.018;6.306;2023-04-10T01:04:17;19.37;;;15.00;;
18899;SDS011;9582;52.018;6.306;2023-04-10T01:06:50;19.07;;;14.47;;
18899;SDS011;9582;52.018;6.306;2023-04-10T01:09:25;17.87;;;14.97;;
18899;SDS011;9582;52.018;6.306;2023-04-10T01:12:03;21.77;;;15.83;;
18899;SDS011;9582;52.018;6.306;2023-04-10T01:14:41;20.40;;;15.53;;
18899;SDS011;9582;52.018;6.306;2023-04-10T01:17:16;18.70;;;14.97;;
18899;SDS011;9582;52.018;6.306;2023-04-10T01:19:53;17.80;;;14.67;;
18899;SDS011;9582;52.018;6.306;2023-04-10T01:22:25;20.33;;;14.67;;
18899;SDS011;9582;52.018;6.306;2023-04-10T01:25:04;19.87;;;14.17;;
18899;SDS011;9582;52.018;6.306;2023-04-10T01:28:04;18.80;;;15.33;;
18899;SDS011;9582;52.018;6.306;2023-04-10T01:30:39;20.30;;;14.77;;
18899;SDS011;9582;52.018;6.306;2023-04-10T01:33:08;18.63;;;14.27;;
18899;SDS011;9582;52.018;6.306;2023-04-10T01:35:38;20.50;;;14.97;;
18899;SDS011;9582;52.018;6.306;2023-04-10T01:38:08;19.33;;;14.57;;
18899;SDS011;9582;52.018;6.306;2023-04-10T01:40:37;20.17;;;15.63;;
18899;SDS011;9582;52.018;6.306;2023-04-10T01:43:07;19.63;;;15.37;;
18899;SDS011;9582;52.018;6.306;2023-04-10T01:45:44;17.93;;;14.27;;
18899;SDS011;9582;52.018;6.306;2023-04-10T01:48:13;18.50;;;14.27;;
18899;SDS011;9582;52.018;6.306;2023-04-10T01:50:41;18.37;;;14.63;;
18899;SDS011;9582;52.018;6.306;2023-04-10T01:53:10;19.47;;;15.13;;
18899;SDS011;9582;52.018;6.306;2023-04-10T01:55:37;21.37;;;15.57;;
18899;SDS011;9582;52.018;6.306;2023-04-10T01:58:05;21.40;;;15.03;;
18899;SDS011;9582;52.018;6.306;2023-04-10T02:00:36;20.83;;;14.97;;
18899;SDS011;9582;52.018;6.306;2023-04-10T02:03:04;20.13;;;15.50;;
18899;SDS011;9582;52.018;6.306;2023-04-10T02:05:45;20.47;;;15.23;;
18899;SDS011;9582;52.018;6.306;2023-04-10T02:08:33;19.50;;;15.27;;
18899;SDS011;9582;52.018;6.306;2023-04-10T02:11:06;19.87;;;14.77;;
18899;SDS011;9582;52.018;6.306;2023-04-10T02:13:39;18.80;;;14.63;;
18899;SDS011;9582;52.018;6.306;2023-04-10T02:16:07;19.43;;;14.37;;
18899;SDS011;9582;52.018;6.306;2023-04-10T02:18:37;19.20;;;14.97;;
18899;SDS011;9582;52.018;6.306;2023-04-10T02:21:06;19.73;;;14.93;;
18899;SDS011;9582;52.018;6.306;2023-04-10T02:23:33;18.17;;;14.73;;
18899;SDS011;9582;52.018;6.306;2023-04-10T02:26:04;21.17;;;15.80;;
18899;SDS011;9582;52.018;6.306;2023-04-10T02:28:31;20.10;;;15.20;;
18899;SDS011;9582;52.018;6.306;2023-04-10T02:30:58;20.53;;;15.10;;
18899;SDS011;9582;52.018;6.306;2023-04-10T02:33:25;18.47;;;14.53;;
18899;SDS011;9582;52.018;6.306;2023-04-10T02:35:53;18.03;;;14.43;;
18899;SDS011;9582;52.018;6.306;2023-04-10T02:38:20;19.73;;;14.00;;
18899;SDS011;9582;52.018;6.306;2023-04-10T02:40:47;21.83;;;14.20;;
18899;SDS011;9582;52.018;6.306;2023-04-10T02:43:15;18.67;;;14.43;;
18899;SDS011;9582;52.018;6.306;2023-04-10T02:45:42;17.73;;;14.03;;
18899;SDS011;9582;52.018;6.306;2023-04-10T02:48:12;19.53;;;14.53;;
18899;SDS011;9582;52.018;6.306;2023-04-10T02:50:38;19.67;;;14.07;;
18899;SDS011;9582;52.018;6.306;2023-04-10T02:53:12;18.43;;;14.07;;
18899;SDS011;9582;52.018;6.306;2023-04-10T02:55:39;19.50;;;14.93;;
18899;SDS011;9582;52.018;6.306;2023-04-10T02:58:05;19.53;;;14.67;;
18899;SDS011;9582;52.018;6.306;2023-04-10T03:00:32;20.70;;;14.27;;
18899;SDS011;9582;52.018;6.306;2023-04-10T03:03:09;17.37;;;13.70;;
18899;SDS011;9582;52.018;6.306;2023-04-10T03:05:42;19.63;;;13.40;;
18899;SDS011;9582;52.018;6.306;2023-04-10T03:08:12;18.27;;;13.57;;
18899;SDS011;9582;52.018;6.306;2023-04-10T03:10:39;19.40;;;14.60;;
18899;SDS011;9582;52.018;6.306;2023-04-10T03:13:08;18.40;;;13.60;;
18899;SDS011;9582;52.018;6.306;2023-04-10T03:15:35;18.20;;;14.30;;
18899;SDS011;9582;52.018;6.306;2023-04-10T03:18:02;19.87;;;14.37;;
18899;SDS011;9582;52.018;6.306;2023-04-10T03:20:29;18.80;;;14.43;;
18899;SDS011;9582;52.018;6.306;2023-04-10T03:22:56;18.60;;;14.03;;
18899;SDS011;9582;52.018;6.306;2023-04-10T03:25:25;19.27;;;14.23;;
18899;SDS011;9582;52.018;6.306;2023-04-10T03:27:52;19.70;;;14.20;;
18899;SDS011;9582;52.018;6.306;2023-04-10T03:30:18;20.73;;;13.67;;
18899;SDS011;9582;52.018;6.306;2023-04-10T03:32:46;18.87;;;13.03;;
18899;SDS011;9582;52.018;6.306;2023-04-10T03:35:12;19.23;;;15.00;;
18899;SDS011;9582;52.018;6.306;2023-04-10T03:37:39;19.27;;;13.63;;
18899;SDS011;9582;52.018;6.306;2023-04-10T03:40:07;19.43;;;13.73;;
18899;SDS011;9582;52.018;6.306;2023-04-10T03:42:36;19.17;;;14.60;;
18899;SDS011;9582;52.018;6.306;2023-04-10T03:45:04;19.30;;;14.30;;
18899;SDS011;9582;52.018;6.306;2023-04-10T03:47:31;17.60;;;12.97;;
18899;SDS011;9582;52.018;6.306;2023-04-10T03:49:59;17.67;;;13.60;;
18899;SDS011;9582;52.018;6.306;2023-04-10T03:52:31;20.10;;;13.67;;
18899;SDS011;9582;52.018;6.306;2023-04-10T03:54:58;19.20;;;13.60;;
18899;SDS011;9582;52.018;6.306;2023-04-10T03:57:26;19.67;;;13.80;;
18899;SDS011;9582;52.018;6.306;2023-04-10T04:00:00;17.43;;;13.10;;
18899;SDS011;9582;52.018;6.306;2023-04-10T04:02:34;17.20;;;13.57;;
18899;SDS011;9582;52.018;6.306;2023-04-10T04:05:00;18.63;;;14.07;;
18899;SDS011;9582;52.018;6.306;2023-04-10T04:08:02;20.40;;;13.20;;
18899;SDS011;9582;52.018;6.306;2023-04-10T04:10:56;19.53;;;14.23;;
18899;SDS011;9582;52.018;6.306;2023-04-10T04:13:43;18.13;;;13.60;;
18899;SDS011;9582;52.018;6.306;2023-04-10T04:16:24;18.33;;;13.33;;
18899;SDS011;9582;52.018;6.306;2023-04-10T04:19:26;17.17;;;13.73;;
18899;SDS011;9582;52.018;6.306;2023-04-10T04:22:10;17.17;;;12.90;;
18899;SDS011;9582;52.018;6.306;2023-04-10T04:25:00;18.60;;;13.63;;
18899;SDS011;9582;52.018;6.306;2023-04-10T04:27:58;17.40;;;13.30;;
18899;SDS011;9582;52.018;6.306;2023-04-10T04:30:37;18.60;;;13.20;;
18899;SDS011;9582;52.018;6.306;2023-04-10T04:33:25;19.27;;;13.13;;
18899;SDS011;9582;52.018;6.306;2023-04-10T04:36:07;19.37;;;13.90;;
18899;SDS011;9582;52.018;6.306;2023-04-10T04:38:36;19.17;;;13.03;;
18899;SDS011;9582;52.018;6.306;2023-04-10T04:41:22;18.43;;;13.07;;
18899;SDS011;9582;52.018;6.306;2023-04-10T04:44:04;16.70;;;12.83;;
18899;SDS011;9582;52.018;6.306;2023-04-10T04:46:43;20.50;;;13.47;;
18899;SDS011;9582;52.018;6.306;2023-04-10T04:49:37;18.93;;;12.20;;
18899;SDS011;9582;52.018;6.306;2023-04-10T04:52:23;19.53;;;13.53;;
18899;SDS011;9582;52.018;6.306;2023-04-10T04:55:14;18.10;;;13.03;;
18899;SDS011;9582;52.018;6.306;2023-04-10T04:57:52;19.30;;;13.53;;
18899;SDS011;9582;52.018;6.306;2023-04-10T05:00:39;19.00;;;13.37;;
18899;SDS011;9582;52.018;6.306;2023-04-10T05:03:18;19.07;;;13.67;;
18899;SDS011;9582;52.018;6.306;2023-04-10T05:06:12;16.97;;;13.47;;
18899;SDS011;9582;52.018;6.306;2023-04-10T05:08:58;18.20;;;13.57;;
18899;SDS011;9582;52.018;6.306;2023-04-10T05:11:54;18.13;;;13.40;;
18899;SDS011;9582;52.018;6.306;2023-04-10T05:14:39;18.37;;;13.83;;
18899;SDS011;9582;52.018;6.306;2023-04-10T05:17:26;17.33;;;13.13;;
18899;SDS011;9582;52.018;6.306;2023-04-10T05:20:11;18.13;;;13.10;;
18899;SDS011;9582;52.018;6.306;2023-04-10T05:22:44;18.27;;;13.20;;
18899;SDS011;9582;52.018;6.306;2023-04-10T05:25:31;18.80;;;14.13;;
18899;SDS011;9582;52.018;6.306;2023-04-10T05:28:07;17.17;;;12.17;;
18899;SDS011;9582;52.018;6.306;2023-04-10T05:30:52;17.40;;;12.23;;
18899;SDS011;9582;52.018;6.306;2023-04-10T05:33:46;16.03;;;12.57;;
18899;SDS011;9582;52.018;6.306;2023-04-10T05:36:22;18.03;;;12.17;;
18899;SDS011;9582;52.018;6.306;2023-04-10T05:39:10;16.97;;;12.47;;
18899;SDS011;9582;52.018;6.306;2023-04-10T05:42:04;17.03;;;11.67;;
18899;SDS011;9582;52.018;6.306;2023-04-10T05:44:50;14.90;;;11.60;;
18899;SDS011;9582;52.018;6.306;2023-04-10T05:47:36;16.43;;;13.00;;
18899;SDS011;9582;52.018;6.306;2023-04-10T05:50:13;17.47;;;13.10;;
18899;SDS011;9582;52.018;6.306;2023-04-10T05:53:11;16.83;;;12.47;;
18899;SDS011;9582;52.018;6.306;2023-04-10T05:55:59;17.27;;;12.07;;
18899;SDS011;9582;52.018;6.306;2023-04-10T05:59:01;16.93;;;11.97;;
18899;SDS011;9582;52.018;6.306;2023-04-10T06:01:46;17.97;;;12.40;;
18899;SDS011;9582;52.018;6.306;2023-04-10T06:04:14;17.90;;;12.13;;
18899;SDS011;9582;52.018;6.306;2023-04-10T06:06:40;17.47;;;13.00;;
18899;SDS011;9582;52.018;6.306;2023-04-10T06:09:08;16.93;;;11.87;;
18899;SDS011;9582;52.018;6.306;2023-04-10T06:11:36;16.23;;;12.47;;
18899;SDS011;9582;52.018;6.306;2023-04-10T06:14:03;16.10;;;12.20;;
18899;SDS011;9582;52.018;6.306;2023-04-10T06:16:39;15.63;;;11.80;;
18899;SDS011;9582;52.018;6.306;2023-04-10T06:19:05;15.17;;;11.43;;
18899;SDS011;9582;52.018;6.306;2023-04-10T06:21:32;14.37;;;10.97;;
18899;SDS011;9582;52.018;6.306;2023-04-10T06:23:58;16.57;;;11.37;;
18899;SDS011;9582;52.018;6.306;2023-04-10T06:26:25;14.43;;;11.57;;
18899;SDS011;9582;52.018;6.306;2023-04-10T06:28:53;13.63;;;10.40;;
18899;SDS011;9582;52.018;6.306;2023-04-10T06:31:20;15.70;;;11.33;;
18899;SDS011;9582;52.018;6.306;2023-04-10T06:33:47;15.50;;;11.33;;
18899;SDS011;9582;52.018;6.306;2023-04-10T06:36:13;15.27;;;10.57;;
18899;SDS011;9582;52.018;6.306;2023-04-10T06:38:46;14.20;;;11.10;;
18899;SDS011;9582;52.018;6.306;2023-04-10T06:41:12;13.27;;;10.53;;
18899;SDS011;9582;52.018;6.306;2023-04-10T06:43:38;14.00;;;11.13;;
18899;SDS011;9582;52.018;6.306;2023-04-10T06:46:06;15.77;;;11.17;;
18899;SDS011;9582;52.018;6.306;2023-04-10T06:48:33;14.30;;;10.90;;
18899;SDS011;9582;52.018;6.306;2023-04-10T06:50:59;12.43;;;9.53;;
18899;SDS011;9582;52.018;6.306;2023-04-10T06:53:26;14.33;;;10.67;;
18899;SDS011;9582;52.018;6.306;2023-04-10T06:55:53;12.37;;;10.27;;
18899;SDS011;9582;52.018;6.306;2023-04-10T06:58:19;12.47;;;10.47;;
18899;SDS011;9582;52.018;6.306;2023-04-10T07:00:46;14.00;;;10.53;;
18899;SDS011;9582;52.018;6.306;2023-04-10T07:03:13;13.53;;;10.63;;
18899;SDS011;9582;52.018;6.306;2023-04-10T07:05:40;13.43;;;9.97;;
18899;SDS011;9582;52.018;6.306;2023-04-10T07:08:06;12.17;;;9.47;;
18899;SDS011;9582;52.018;6.306;2023-04-10T07:10:33;11.77;;;9.83;;
18899;SDS011;9582;52.018;6.306;2023-04-10T07:13:00;11.97;;;10.10;;
18899;SDS011;9582;52.018;6.306;2023-04-10T07:15:26;13.33;;;9.57;;
18899;SDS011;9582;52.018;6.306;2023-04-10T07:17:53;11.33;;;9.30;;
18899;SDS011;9582;52.018;6.306;2023-04-10T07:20:21;13.13;;;9.77;;
18899;SDS011;9582;52.018;6.306;2023-04-10T07:22:48;11.33;;;9.07;;
18899;SDS011;9582;52.018;6.306;2023-04-10T07:25:14;13.40;;;9.63;;
18899;SDS011;9582;52.018;6.306;2023-04-10T07:27:42;12.47;;;9.43;;
18899;SDS011;9582;52.018;6.306;2023-04-10T07:30:09;11.17;;;9.17;;
18899;SDS011;9582;52.018;6.306;2023-04-10T07:32:36;11.63;;;9.90;;
18899;SDS011;9582;52.018;6.306;2023-04-10T07:35:04;10.97;;;8.40;;
18899;SDS011;9582;52.018;6.306;2023-04-10T07:37:32;12.10;;;9.63;;
18899;SDS011;9582;52.018;6.306;2023-04-10T07:39:59;13.57;;;8.93;;
18899;SDS011;9582;52.018;6.306;2023-04-10T07:42:26;11.20;;;9.30;;
18899;SDS011;9582;52.018;6.306;2023-04-10T07:44:52;12.77;;;10.33;;
18899;SDS011;9582;52.018;6.306;2023-04-10T07:47:19;12.20;;;9.67;;
18899;SDS011;9582;52.018;6.306;2023-04-10T07:49:46;9.83;;;8.80;;
18899;SDS011;9582;52.018;6.306;2023-04-10T07:52:13;11.00;;;9.57;;
18899;SDS011;9582;52.018;6.306;2023-04-10T07:54:41;10.43;;;8.70;;
18899;SDS011;9582;52.018;6.306;2023-04-10T07:57:08;10.33;;;8.47;;
18899;SDS011;9582;52.018;6.306;2023-04-10T07:59:34;11.23;;;8.87;;
18899;SDS011;9582;52.018;6.306;2023-04-10T08:02:01;10.55;;;8.10;;
18899;SDS011;9582;52.018;6.306;2023-04-10T08:04:27;11.45;;;8.75;;
18899;SDS011;9582;52.018;6.306;2023-04-10T08:06:54;9.98;;;7.38;;
18899;SDS011;9582;52.018;6.306;2023-04-10T08:09:20;11.55;;;9.15;;
18899;SDS011;9582;52.018;6.306;2023-04-10T08:11:48;10.43;;;8.30;;
18899;SDS011;9582;52.018;6.306;2023-04-10T08:14:14;12.73;;;8.82;;
18899;SDS011;9582;52.018;6.306;2023-04-10T08:16:41;9.93;;;8.40;;
18899;SDS011;9582;52.018;6.306;2023-04-10T08:19:08;9.98;;;8.68;;
18899;SDS011;9582;52.018;6.306;2023-04-10T08:21:34;10.05;;;8.93;;
18899;SDS011;9582;52.018;6.306;2023-04-10T08:24:01;10.77;;;8.55;;
18899;SDS011;9582;52.018;6.306;2023-04-10T08:26:29;8.63;;;7.30;;
18899;SDS011;9582;52.018;6.306;2023-04-10T08:28:57;10.67;;;7.97;;
18899;SDS011;9582;52.018;6.306;2023-04-10T08:31:25;11.37;;;9.20;;
18899;SDS011;9582;52.018;6.306;2023-04-10T08:33:53;10.85;;;8.98;;
18899;SDS011;9582;52.018;6.306;2023-04-10T08:36:20;10.33;;;7.93;;
18899;SDS011;9582;52.018;6.306;2023-04-10T08:38:46;9.50;;;7.38;;
18899;SDS011;9582;52.018;6.306;2023-04-10T08:41:14;10.80;;;9.40;;
18899;SDS011;9582;52.018;6.306;2023-04-10T08:43:41;10.65;;;9.07;;
18899;SDS011;9582;52.018;6.306;2023-04-10T08:46:11;12.13;;;9.55;;
18899;SDS011;9582;52.018;6.306;2023-04-10T08:48:42;10.82;;;8.52;;
18899;SDS011;9582;52.018;6.306;2023-04-10T08:51:12;11.60;;;8.60;;
18899;SDS011;9582;52.018;6.306;2023-04-10T08:53:42;10.80;;;8.32;;
18899;SDS011;9582;52.018;6.306;2023-04-10T08:56:10;10.52;;;8.52;;
18899;SDS011;9582;52.018;6.306;2023-04-10T08:58:38;10.07;;;8.82;;
18899;SDS011;9582;52.018;6.306;2023-04-10T09:01:05;10.38;;;8.68;;
18899;SDS011;9582;52.018;6.306;2023-04-10T09:03:33;10.55;;;8.70;;
18899;SDS011;9582;52.018;6.306;2023-04-10T09:06:00;10.50;;;9.18;;
18899;SDS011;9582;52.018;6.306;2023-04-10T09:08:28;10.60;;;8.73;;
18899;SDS011;9582;52.018;6.306;2023-04-10T09:10:55;10.85;;;9.60;;
18899;SDS011;9582;52.018;6.306;2023-04-10T09:13:33;9.50;;;8.00;;
18899;SDS011;9582;52.018;6.306;2023-04-10T09:16:01;9.95;;;8.30;;
18899;SDS011;9582;52.018;6.306;2023-04-10T09:18:43;9.50;;;8.30;;
18899;SDS011;9582;52.018;6.306;2023-04-10T09:21:12;8.57;;;7.68;;
18899;SDS011;9582;52.018;6.306;2023-04-10T09:23:40;8.98;;;8.05;;
18899;SDS011;9582;52.018;6.306;2023-04-10T09:26:21;9.05;;;8.15;;
18899;SDS011;9582;52.018;6.306;2023-04-10T09:28:54;8.80;;;7.80;;
18899;SDS011;9582;52.018;6.306;2023-04-10T09:31:26;7.80;;;7.00;;
18899;SDS011;9582;52.018;6.306;2023-04-10T09:34:13;7.85;;;6.97;;
18899;SDS011;9582;52.018;6.306;2023-04-10T09:36:42;7.68;;;6.85;;
18899;SDS011;9582;52.018;6.306;2023-04-10T09:39:10;7.57;;;6.55;;
18899;SDS011;9582;52.018;6.306;2023-04-10T09:41:47;6.65;;;5.78;;
18899;SDS011;9582;52.018;6.306;2023-04-10T09:44:16;7.85;;;6.95;;
18899;SDS011;9582;52.018;6.306;2023-04-10T09:46:44;7.72;;;6.93;;
18899;SDS011;9582;52.018;6.306;2023-04-10T09:49:11;8.88;;;6.95;;
18899;SDS011;9582;52.018;6.306;2023-04-10T09:51:39;8.45;;;6.22;;
18899;SDS011;9582;52.018;6.306;2023-04-10T09:54:06;10.23;;;7.35;;
18899;SDS011;9582;52.018;6.306;2023-04-10T09:56:35;7.10;;;6.40;;
18899;SDS011;9582;52.018;6.306;2023-04-10T09:59:03;9.65;;;6.93;;
18899;SDS011;9582;52.018;6.306;2023-04-10T10:01:32;7.07;;;6.30;;
18899;SDS011;9582;52.018;6.306;2023-04-10T10:04:00;6.57;;;5.97;;
18899;SDS011;9582;52.018;6.306;2023-04-10T10:06:28;8.65;;;7.10;;
18899;SDS011;9582;52.018;6.306;2023-04-10T10:08:58;7.50;;;6.57;;
18899;SDS011;9582;52.018;6.306;2023-04-10T10:11:27;7.32;;;6.53;;
18899;SDS011;9582;52.018;6.306;2023-04-10T10:13:56;8.07;;;7.28;;
18899;SDS011;9582;52.018;6.306;2023-04-10T10:16:25;7.45;;;6.50;;
18899;SDS011;9582;52.018;6.306;2023-04-10T10:18:58;7.53;;;6.43;;
18899;SDS011;9582;52.018;6.306;2023-04-10T10:21:31;6.53;;;5.90;;
18899;SDS011;9582;52.018;6.306;2023-04-10T10:24:01;8.05;;;6.03;;
18899;SDS011;9582;52.018;6.306;2023-04-10T10:26:32;6.80;;;6.00;;
18899;SDS011;9582;52.018;6.306;2023-04-10T10:29:02;7.90;;;6.60;;
18899;SDS011;9582;52.018;6.306;2023-04-10T10:31:30;7.13;;;6.32;;
18899;SDS011;9582;52.018;6.306;2023-04-10T10:34:01;6.85;;;5.78;;
18899;SDS011;9582;52.018;6.306;2023-04-10T10:36:31;7.40;;;6.70;;
18899;SDS011;9582;52.018;6.306;2023-04-10T10:39:03;6.95;;;5.80;;
18899;SDS011;9582;52.018;6.306;2023-04-10T10:41:43;7.68;;;6.45;;
18899;SDS011;9582;52.018;6.306;2023-04-10T10:44:17;7.18;;;6.47;;
18899;SDS011;9582;52.018;6.306;2023-04-10T10:46:56;7.85;;;6.05;;
18899;SDS011;9582;52.018;6.306;2023-04-10T10:57:59;9.30;;;6.68;;
18899;SDS011;9582;52.018;6.306;2023-04-10T11:03:27;7.97;;;7.10;;
18899;SDS011;9582;52.018;6.306;2023-04-10T11:05:54;7.57;;;6.20;;
18899;SDS011;9582;52.018;6.306;2023-04-10T11:08:34;7.53;;;6.78;;
18899;SDS011;9582;52.018;6.306;2023-04-10T11:11:05;7.18;;;6.43;;
18899;SDS011;9582;52.018;6.306;2023-04-10T11:13:32;7.22;;;6.15;;
18899;SDS011;9582;52.018;6.306;2023-04-10T11:16:00;6.78;;;6.07;;
18899;SDS011;9582;52.018;6.306;2023-04-10T11:21:29;7.20;;;6.20;;
18899;SDS011;9582;52.018;6.306;2023-04-10T11:24:03;6.38;;;5.68;;
18899;SDS011;9582;52.018;6.306;2023-04-10T11:26:40;6.10;;;5.50;;
18899;SDS011;9582;52.018;6.306;2023-04-10T11:31:59;5.72;;;4.10;;
18899;SDS011;9582;52.018;6.306;2023-04-10T11:34:27;6.88;;;5.70;;
18899;SDS011;9582;52.018;6.306;2023-04-10T11:36:55;6.65;;;5.32;;
18899;SDS011;9582;52.018;6.306;2023-04-10T11:39:21;6.70;;;4.78;;
18899;SDS011;9582;52.018;6.306;2023-04-10T11:41:51;6.80;;;5.00;;
18899;SDS011;9582;52.018;6.306;2023-04-10T11:44:19;6.05;;;4.90;;
18899;SDS011;9582;52.018;6.306;2023-04-10T11:46:53;5.60;;;5.00;;
18899;SDS011;9582;52.018;6.306;2023-04-10T11:49:20;6.63;;;5.75;;
18899;SDS011;9582;52.018;6.306;2023-04-10T11:51:48;6.68;;;5.07;;
18899;SDS011;9582;52.018;6.306;2023-04-10T11:54:16;6.35;;;4.85;;
18899;SDS011;9582;52.018;6.306;2023-04-10T11:56:55;5.68;;;5.18;;
18899;SDS011;9582;52.018;6.306;2023-04-10T11:59:25;6.32;;;5.47;;
18899;SDS011;9582;52.018;6.306;2023-04-10T12:01:52;5.82;;;5.25;;
18899;SDS011;9582;52.018;6.306;2023-04-10T12:04:20;5.93;;;5.32;;
18899;SDS011;9582;52.018;6.306;2023-04-10T12:06:48;7.03;;;5.00;;
18899;SDS011;9582;52.018;6.306;2023-04-10T12:09:16;5.72;;;5.13;;
18899;SDS011;9582;52.018;6.306;2023-04-10T12:11:50;6.13;;;5.05;;
18899;SDS011;9582;52.018;6.306;2023-04-10T12:14:18;5.80;;;4.65;;
18899;SDS011;9582;52.018;6.306;2023-04-10T12:16:46;5.28;;;4.55;;
18899;SDS011;9582;52.018;6.306;2023-04-10T12:19:13;5.40;;;4.90;;
18899;SDS011;9582;52.018;6.306;2023-04-10T12:21:41;5.13;;;4.70;;
18899;SDS011;9582;52.018;6.306;2023-04-10T12:24:08;5.03;;;4.28;;
18899;SDS011;9582;52.018;6.306;2023-04-10T12:26:34;6.50;;;5.50;;
18899;SDS011;9582;52.018;6.306;2023-04-10T12:29:01;5.20;;;4.47;;
18899;SDS011;9582;52.018;6.306;2023-04-10T12:31:30;5.03;;;4.43;;
18899;SDS011;9582;52.018;6.306;2023-04-10T12:33:57;5.57;;;5.05;;
18899;SDS011;9582;52.018;6.306;2023-04-10T12:36:25;7.25;;;5.60;;
18899;SDS011;9582;52.018;6.306;2023-04-10T12:38:54;6.22;;;5.10;;
18899;SDS011;9582;52.018;6.306;2023-04-10T12:41:21;5.95;;;5.35;;
18899;SDS011;9582;52.018;6.306;2023-04-10T12:43:49;7.93;;;5.45;;
18899;SDS011;9582;52.018;6.306;2023-04-10T12:46:23;5.45;;;4.82;;
18899;SDS011;9582;52.018;6.306;2023-04-10T12:48:53;5.55;;;5.05;;
18899;SDS011;9582;52.018;6.306;2023-04-10T12:54:11;5.35;;;4.85;;
18899;SDS011;9582;52.018;6.306;2023-04-10T12:56:52;7.50;;;5.10;;
18899;SDS011;9582;52.018;6.306;2023-04-10T12:59:19;6.43;;;4.43;;
18899;SDS011;9582;52.018;6.306;2023-04-10T13:01:45;6.18;;;4.82;;
18899;SDS011;9582;52.018;6.306;2023-04-10T13:04:13;5.20;;;4.70;;
18899;SDS011;9582;52.018;6.306;2023-04-10T13:06:43;5.60;;;4.60;;
18899;SDS011;9582;52.018;6.306;2023-04-10T13:09:10;6.15;;;4.60;;
18899;SDS011;9582;52.018;6.306;2023-04-10T13:11:37;5.32;;;4.72;;
18899;SDS011;9582;52.018;6.306;2023-04-10T13:14:03;7.60;;;5.25;;
18899;SDS011;9582;52.018;6.306;2023-04-10T13:16:29;7.70;;;5.07;;
18899;SDS011;9582;52.018;6.306;2023-04-10T13:18:56;6.38;;;5.57;;
18899;SDS011;9582;52.018;6.306;2023-04-10T13:21:24;5.47;;;4.60;;
18899;SDS011;9582;52.018;6.306;2023-04-10T13:23:52;5.40;;;4.85;;
18899;SDS011;9582;52.018;6.306;2023-04-10T13:26:19;5.50;;;5.00;;
18899;SDS011;9582;52.018;6.306;2023-04-10T13:28:45;5.85;;;4.80;;
18899;SDS011;9582;52.018;6.306;2023-04-10T13:31:12;5.80;;;5.28;;
18899;SDS011;9582;52.018;6.306;2023-04-10T13:33:39;5.00;;;4.50;;
18899;SDS011;9582;52.018;6.306;2023-04-10T13:36:07;5.82;;;5.22;;
18899;SDS011;9582;52.018;6.306;2023-04-10T13:38:35;6.05;;;5.47;;
18899;SDS011;9582;52.018;6.306;2023-04-10T13:41:01;6.28;;;5.10;;
18899;SDS011;9582;52.018;6.306;2023-04-10T13:43:28;5.63;;;5.03;;
18899;SDS011;9582;52.018;6.306;2023-04-10T13:45:54;5.78;;;5.28;;
18899;SDS011;9582;52.018;6.306;2023-04-10T13:48:21;4.90;;;4.40;;
18899;SDS011;9582;52.018;6.306;2023-04-10T13:50:47;6.75;;;5.60;;
18899;SDS011;9582;52.018;6.306;2023-04-10T13:53:14;6.28;;;5.15;;
18899;SDS011;9582;52.018;6.306;2023-04-10T13:55:43;5.28;;;4.53;;
18899;SDS011;9582;52.018;6.306;2023-04-10T13:58:11;5.05;;;4.35;;
18899;SDS011;9582;52.018;6.306;2023-04-10T14:00:38;4.93;;;4.43;;
18899;SDS011;9582;52.018;6.306;2023-04-10T14:03:04;6.35;;;4.68;;
18899;SDS011;9582;52.018;6.306;2023-04-10T14:05:34;5.05;;;4.55;;
18899;SDS011;9582;52.018;6.306;2023-04-10T14:08:00;4.68;;;4.22;;
18899;SDS011;9582;52.018;6.306;2023-04-10T14:10:27;5.47;;;4.85;;
18899;SDS011;9582;52.018;6.306;2023-04-10T14:12:55;4.97;;;4.47;;
18899;SDS011;9582;52.018;6.306;2023-04-10T14:15:21;5.18;;;4.68;;
18899;SDS011;9582;52.018;6.306;2023-04-10T14:17:48;5.97;;;4.88;;
18899;SDS011;9582;52.018;6.306;2023-04-10T14:20:14;5.07;;;4.57;;
18899;SDS011;9582;52.018;6.306;2023-04-10T14:22:41;6.03;;;4.40;;
18899;SDS011;9582;52.018;6.306;2023-04-10T14:25:07;5.97;;;4.35;;
18899;SDS011;9582;52.018;6.306;2023-04-10T14:27:39;5.07;;;4.60;;
18899;SDS011;9582;52.018;6.306;2023-04-10T14:30:08;5.97;;;4.00;;
18899;SDS011;9582;52.018;6.306;2023-04-10T14:32:34;4.60;;;4.20;;
18899;SDS011;9582;52.018;6.306;2023-04-10T14:35:01;4.57;;;4.18;;
18899;SDS011;9582;52.018;6.306;2023-04-10T14:37:27;4.85;;;4.40;;
18899;SDS011;9582;52.018;6.306;2023-04-10T14:39:54;4.38;;;3.88;;
18899;SDS011;9582;52.018;6.306;2023-04-10T14:42:20;4.38;;;3.97;;
18899;SDS011;9582;52.018;6.306;2023-04-10T14:44:47;4.28;;;3.88;;
18899;SDS011;9582;52.018;6.306;2023-04-10T14:47:16;5.00;;;4.50;;
18899;SDS011;9582;52.018;6.306;2023-04-10T14:49:43;5.63;;;4.05;;
18899;SDS011;9582;52.018;6.306;2023-04-10T14:52:09;7.03;;;4.53;;
18899;SDS011;9582;52.018;6.306;2023-04-10T14:54:36;5.40;;;4.40;;
18899;SDS011;9582;52.018;6.306;2023-04-10T14:57:03;5.03;;;4.53;;
18899;SDS011;9582;52.018;6.306;2023-04-10T14:59:29;4.43;;;4.03;;
18899;SDS011;9582;52.018;6.306;2023-04-10T15:01:56;4.22;;;3.83;;
18899;SDS011;9582;52.018;6.306;2023-04-10T15:04:24;5.22;;;3.78;;
18899;SDS011;9582;52.018;6.306;2023-04-10T15:06:50;3.90;;;3.55;;
18899;SDS011;9582;52.018;6.306;2023-04-10T15:09:17;4.20;;;3.50;;
18899;SDS011;9582;52.018;6.306;2023-04-10T15:11:43;4.70;;;3.75;;
18899;SDS011;9582;52.018;6.306;2023-04-10T15:14:11;3.75;;;3.28;;
18899;SDS011;9582;52.018;6.306;2023-04-10T15:16:37;4.00;;;3.22;;
18899;SDS011;9582;52.018;6.306;2023-04-10T15:19:04;3.28;;;2.97;;
18899;SDS011;9582;52.018;6.306;2023-04-10T15:21:32;3.30;;;3.00;;
18899;SDS011;9582;52.018;6.306;2023-04-10T15:23:58;3.72;;;3.20;;
18899;SDS011;9582;52.018;6.306;2023-04-10T15:26:25;3.83;;;2.90;;
18899;SDS011;9582;52.018;6.306;2023-04-10T15:28:52;2.85;;;2.55;;